sensor_id;sensor_type;location;lat;lon;timestamp;pressure;altitude;pressure_sealevel;temperature;humidity
39823;BME280;25499;53.958;10.970;2023-01-29T07:31:14;102182.06;;;2.84;100.00
39823;BME280;25499;53.958;10.970;2023-01-29T07:33:42;102183.97;;;2.88;100.00
39823;BME280;25499;53.958;10.970;2023-01-29T07:36:09;102181.91;;;2.81;100.00
39823;BME280;25499;53.958;10.970;2023-01-29T07:38:35;102183.97;;;2.88;100.00
39823;BME280;25499;53.958;10.970;2023-01-29T07:41:00;102184.72;;;2.86;100.00
39823;BME280;25499;53.958;10.970;2023-01-29T07:43:25;102176.34;;;2.90;100.00
39823;BME280;25499;53.958;10.970;2023-01-29T07:45:51;102163.81;;;2.96;100.00
39823;BME280;25499;53.958;10.970;2023-01-29T07:48:17;102159.47;;;2.95;100.00
39823;BME280;25499;53.958;10.970;2023-01-29T07:50:42;102153.28;;;2.91;100.00
39823;BME280;25499;53.958;10.970;2023-01-29T07:53:12;102152.25;;;2.88;100.00
39823;BME280;25499;53.958;10.970;2023-01-29T07:55:39;102156.50;;;2.87;100.00
39823;BME280;25499;53.958;10.970;2023-01-29T07:58:05;102161.00;;;2.91;100.00
39823;BME280;25499;53.958;10.970;2023-01-29T08:00:31;102159.88;;;2.86;100.00
39823;BME280;25499;53.958;10.970;2023-01-29T08:03:16;102158.41;;;2.91;100.00
39823;BME280;25499;53.958;10.970;2023-01-29T08:05:44;102156.97;;;2.96;100.00
39823;BME280;25499;53.958;10.970;2023-01-29T08:08:10;102156.81;;;2.93;100.00
39823;BME280;25499;53.958;10.970;2023-01-29T08:10:36;102152.94;;;3.02;100.00
39823;BME280;25499;53.958;10.970;2023-01-29T08:13:03;102145.22;;;3.02;100.00
39823;BME280;25499;53.958;10.970;2023-01-29T08:15:29;102131.81;;;2.91;100.00
39823;BME280;25499;53.958;10.970;2023-01-29T08:17:55;102144.19;;;2.98;100.00
39823;BME280;25499;53.958;10.970;2023-01-29T08:20:21;102138.16;;;2.97;100.00
39823;BME280;25499;53.958;10.970;2023-01-29T08:22:47;102137.06;;;2.92;100.00
39823;BME280;25499;53.958;10.970;2023-01-29T08:25:13;102143.88;;;2.92;100.00
39823;BME280;25499;53.958;10.970;2023-01-29T08:27:40;102134.84;;;3.00;100.00
39823;BME280;25499;53.958;10.970;2023-01-29T08:30:06;102131.47;;;3.01;100.00
39823;BME280;25499;53.958;10.970;2023-01-29T08:32:32;102143.75;;;3.07;100.00
39823;BME280;25499;53.958;10.970;2023-01-29T08:34:57;102149.41;;;2.99;100.00
39823;BME280;25499;53.958;10.970;2023-01-29T08:37:23;102130.69;;;3.02;100.00
39823;BME280;25499;53.958;10.970;2023-01-29T08:39:48;102130.38;;;2.96;100.00
39823;BME280;25499;53.958;10.970;2023-01-29T08:42:13;102133.91;;;2.98;100.00
39823;BME280;25499;53.958;10.970;2023-01-29T08:44:39;102134.94;;;3.02;100.00
39823;BME280;25499;53.958;10.970;2023-01-29T08:47:04;102128.47;;;3.10;100.00
39823;BME280;25499;53.958;10.970;2023-01-29T08:49:30;102123.03;;;3.04;100.00
39823;BME280;25499;53.958;10.970;2023-01-29T08:51:55;102134.28;;;3.06;100.00
39823;BME280;25499;53.958;10.970;2023-01-29T08:54:22;102127.00;;;3.15;100.00
39823;BME280;25499;53.958;10.970;2023-01-29T08:56:47;102117.69;;;3.17;100.00
39823;BME280;25499;53.958;10.970;2023-01-29T08:59:13;102119.69;;;3.23;100.00
39823;BME280;25499;53.958;10.970;2023-01-29T09:01:38;102116.88;;;3.18;100.00
39823;BME280;25499;53.958;10.970;2023-01-29T09:04:04;102115.19;;;3.18;100.00
39823;BME280;25499;53.958;10.970;2023-01-29T09:06:29;102118.00;;;3.23;100.00
39823;BME280;25499;53.958;10.970;2023-01-29T09:08:55;102115.41;;;3.23;100.00
39823;BME280;25499;53.958;10.970;2023-01-29T09:11:20;102116.28;;;3.24;100.00
39823;BME280;25499;53.958;10.970;2023-01-29T09:13:45;102116.53;;;3.28;100.00
39823;BME280;25499;53.958;10.970;2023-01-29T09:16:11;102107.78;;;3.25;100.00
39823;BME280;25499;53.958;10.970;2023-01-29T09:18:36;102102.91;;;3.31;100.00
39823;BME280;25499;53.958;10.970;2023-01-29T09:21:02;102094.31;;;3.30;100.00
39823;BME280;25499;53.958;10.970;2023-01-29T09:23:28;102095.72;;;3.42;100.00
39823;BME280;25499;53.958;10.970;2023-01-29T09:25:55;102091.53;;;3.44;100.00
39823;BME280;25499;53.958;10.970;2023-01-29T09:28:21;102092.31;;;3.43;100.00
39823;BME280;25499;53.958;10.970;2023-01-29T09:30:46;102090.41;;;3.39;100.00
39823;BME280;25499;53.958;10.970;2023-01-29T09:33:12;102082.63;;;3.37;100.00
39823;BME280;25499;53.958;10.970;2023-01-29T09:35:41;102076.53;;;3.35;100.00
39823;BME280;25499;53.958;10.970;2023-01-29T09:38:08;102086.13;;;3.39;100.00
39823;BME280;25499;53.958;10.970;2023-01-29T09:43:48;102072.78;;;3.46;100.00
39823;BME280;25499;53.958;10.970;2023-01-29T09:46:20;102058.94;;;3.44;100.00
39823;BME280;25499;53.958;10.970;2023-01-29T09:48:57;102057.75;;;3.38;100.00
39823;BME280;25499;53.958;10.970;2023-01-29T09:51:34;102052.22;;;3.48;100.00
39823;BME280;25499;53.958;10.970;2023-01-29T09:56:36;102044.38;;;3.45;100.00
39823;BME280;25499;53.958;10.970;2023-01-29T09:59:01;102037.47;;;3.44;100.00
39823;BME280;25499;53.958;10.970;2023-01-29T10:23:44;102028.13;;;3.46;100.00
39823;BME280;25499;53.958;10.970;2023-01-29T10:26:12;102027.09;;;3.42;100.00
39823;BME280;25499;53.958;10.970;2023-01-29T10:28:48;102029.88;;;3.47;100.00
39823;BME280;25499;53.958;10.970;2023-01-29T10:31:27;102028.25;;;3.49;100.00
39823;BME280;25499;53.958;10.970;2023-01-29T10:33:56;102018.72;;;3.46;100.00
39823;BME280;25499;53.958;10.970;2023-01-29T10:36:27;102028.78;;;3.42;100.00
39823;BME280;25499;53.958;10.970;2023-01-29T10:38:56;102019.28;;;3.41;100.00
39823;BME280;25499;53.958;10.970;2023-01-29T10:44:36;102016.78;;;3.42;100.00
39823;BME280;25499;53.958;10.970;2023-01-29T10:57:37;101986.78;;;3.43;100.00
39823;BME280;25499;53.958;10.970;2023-01-29T11:02:45;101970.84;;;3.32;100.00
39823;BME280;25499;53.958;10.970;2023-01-29T11:05:33;101976.16;;;3.35;100.00
39823;BME280;25499;53.958;10.970;2023-01-29T11:08:45;101969.97;;;3.31;100.00
39823;BME280;25499;53.958;10.970;2023-01-29T11:11:11;101964.97;;;3.34;100.00
39823;BME280;25499;53.958;10.970;2023-01-29T11:13:53;101957.25;;;3.34;100.00
39823;BME280;25499;53.958;10.970;2023-01-29T11:16:19;101960.69;;;3.35;100.00
39823;BME280;25499;53.958;10.970;2023-01-29T11:21:18;101947.75;;;3.33;100.00
39823;BME280;25499;53.958;10.970;2023-01-29T11:23:44;101951.19;;;3.34;100.00
39823;BME280;25499;53.958;10.970;2023-01-29T11:26:12;101941.75;;;3.33;100.00
39823;BME280;25499;53.958;10.970;2023-01-29T11:28:41;101941.53;;;3.28;100.00
39823;BME280;25499;53.958;10.970;2023-01-29T11:31:24;101921.88;;;3.30;100.00
39823;BME280;25499;53.958;10.970;2023-01-29T11:33:59;101927.25;;;3.35;100.00
39823;BME280;25499;53.958;10.970;2023-01-29T11:36:37;101922.56;;;3.26;100.00
39823;BME280;25499;53.958;10.970;2023-01-29T11:39:19;101915.50;;;3.22;100.00
39823;BME280;25499;53.958;10.970;2023-01-29T11:46:54;101911.66;;;3.32;100.00
39823;BME280;25499;53.958;10.970;2023-01-29T11:49:31;101902.63;;;3.22;100.00
39823;BME280;25499;53.958;10.970;2023-01-29T11:52:00;101900.06;;;3.22;100.00
39823;BME280;25499;53.958;10.970;2023-01-29T11:54:32;101896.13;;;3.30;100.00
39823;BME280;25499;53.958;10.970;2023-01-29T11:56:59;101894.91;;;3.22;100.00
39823;BME280;25499;53.958;10.970;2023-01-29T11:59:41;101890.06;;;3.28;100.00
39823;BME280;25499;53.958;10.970;2023-01-29T12:02:22;101895.53;;;3.36;100.00
39823;BME280;25499;53.958;10.970;2023-01-29T12:04:51;101895.19;;;3.28;100.00
39823;BME280;25499;53.958;10.970;2023-01-29T12:07:18;101886.53;;;3.26;100.00
39823;BME280;25499;53.958;10.970;2023-01-29T12:09:52;101877.19;;;3.28;100.00
39823;BME280;25499;53.958;10.970;2023-01-29T12:12:35;101878.97;;;3.29;100.00
39823;BME280;25499;53.958;10.970;2023-01-29T12:15:21;101875.56;;;3.30;100.00
39823;BME280;25499;53.958;10.970;2023-01-29T12:18:04;101873.91;;;3.32;100.00
39823;BME280;25499;53.958;10.970;2023-01-29T12:20:51;101862.03;;;3.34;100.00
39823;BME280;25499;53.958;10.970;2023-01-29T12:23:30;101864.53;;;3.33;100.00
39823;BME280;25499;53.958;10.970;2023-01-29T12:26:07;101865.25;;;3.30;100.00
39823;BME280;25499;53.958;10.970;2023-01-29T12:51:23;101831.25;;;3.57;100.00
39823;BME280;25499;53.958;10.970;2023-01-29T12:54:05;101819.03;;;3.53;100.00
39823;BME280;25499;53.958;10.970;2023-01-29T12:56:38;101815.38;;;3.48;100.00
39823;BME280;25499;53.958;10.970;2023-01-29T12:59:30;101810.25;;;3.48;100.00
39823;BME280;25499;53.958;10.970;2023-01-29T13:02:05;101805.06;;;3.46;100.00
39823;BME280;25499;53.958;10.970;2023-01-29T13:07:46;101794.69;;;3.45;100.00
39823;BME280;25499;53.958;10.970;2023-01-29T13:10:18;101785.19;;;3.44;100.00
39823;BME280;25499;53.958;10.970;2023-01-29T13:13:10;101777.47;;;3.44;100.00
39823;BME280;25499;53.958;10.970;2023-01-29T13:15:40;101773.41;;;3.49;100.00
39823;BME280;25499;53.958;10.970;2023-01-29T13:18:30;101772.66;;;3.51;100.00
39823;BME280;25499;53.958;10.970;2023-01-29T13:20:58;101772.75;;;3.54;100.00
39823;BME280;25499;53.958;10.970;2023-01-29T13:23:32;101762.47;;;3.54;100.00
39823;BME280;25499;53.958;10.970;2023-01-29T13:25:59;101764.03;;;3.51;100.00
39823;BME280;25499;53.958;10.970;2023-01-29T13:28:25;101754.66;;;3.51;100.00
39823;BME280;25499;53.958;10.970;2023-01-29T13:31:10;101745.88;;;3.48;100.00
39823;BME280;25499;53.958;10.970;2023-01-29T13:33:37;101746.78;;;3.48;100.00
39823;BME280;25499;53.958;10.970;2023-01-29T13:36:12;101748.78;;;3.55;100.00
39823;BME280;25499;53.958;10.970;2023-01-29T13:38:41;101738.38;;;3.52;100.00
39823;BME280;25499;53.958;10.970;2023-01-29T13:41:09;101735.59;;;3.48;100.00
39823;BME280;25499;53.958;10.970;2023-01-29T13:43:40;101733.97;;;3.50;100.00
39823;BME280;25499;53.958;10.970;2023-01-29T13:46:13;101737.50;;;3.52;100.00
39823;BME280;25499;53.958;10.970;2023-01-29T13:48:43;101719.22;;;3.46;100.00
39823;BME280;25499;53.958;10.970;2023-01-29T13:51:13;101730.44;;;3.48;100.00
39823;BME280;25499;53.958;10.970;2023-01-29T13:53:53;101725.34;;;3.49;100.00
39823;BME280;25499;53.958;10.970;2023-01-29T13:59:00;101715.06;;;3.49;100.00
39823;BME280;25499;53.958;10.970;2023-01-29T14:04:22;101709.31;;;3.55;100.00
39823;BME280;25499;53.958;10.970;2023-01-29T14:07:02;101710.97;;;3.54;100.00
39823;BME280;25499;53.958;10.970;2023-01-29T14:14:58;101685.38;;;3.58;100.00
39823;BME280;25499;53.958;10.970;2023-01-29T14:17:25;101687.66;;;3.50;100.00
39823;BME280;25499;53.958;10.970;2023-01-29T14:20:14;101678.28;;;3.52;100.00
39823;BME280;25499;53.958;10.970;2023-01-29T14:22:41;101671.44;;;3.52;100.00
39823;BME280;25499;53.958;10.970;2023-01-29T14:25:15;101668.84;;;3.52;100.00
39823;BME280;25499;53.958;10.970;2023-01-29T14:27:46;101658.38;;;3.48;100.00
39823;BME280;25499;53.958;10.970;2023-01-29T14:30:16;101661.78;;;3.47;100.00
39823;BME280;25499;53.958;10.970;2023-01-29T14:32:45;101660.91;;;3.46;100.00
39823;BME280;25499;53.958;10.970;2023-01-29T14:35:22;101635.63;;;3.38;100.00
39823;BME280;25499;53.958;10.970;2023-01-29T14:37:51;101654.84;;;3.46;100.00
39823;BME280;25499;53.958;10.970;2023-01-29T14:43:02;101643.75;;;3.47;100.00
39823;BME280;25499;53.958;10.970;2023-01-29T14:45:30;101649.84;;;3.49;100.00
39823;BME280;25499;53.958;10.970;2023-01-29T14:56:13;101632.13;;;3.35;100.00
39823;BME280;25499;53.958;10.970;2023-01-29T14:59:33;101638.41;;;3.42;100.00
39823;BME280;25499;53.958;10.970;2023-01-29T15:01:37;101625.41;;;3.39;100.00
39823;BME280;25499;53.958;10.970;2023-01-29T15:04:15;101619.03;;;3.29;100.00
39823;BME280;25499;53.958;10.970;2023-01-29T15:06:50;101619.03;;;3.29;100.00
39823;BME280;25499;53.958;10.970;2023-01-29T15:12:30;101607.03;;;3.30;100.00
39823;BME280;25499;53.958;10.970;2023-01-29T15:17:54;101615.63;;;3.30;100.00
39823;BME280;25499;53.958;10.970;2023-01-29T15:20:32;101614.75;;;3.30;100.00
39823;BME280;25499;53.958;10.970;2023-01-29T15:22:58;101609.81;;;3.34;100.00
39823;BME280;25499;53.958;10.970;2023-01-29T15:25:24;101603.59;;;3.29;100.00
39823;BME280;25499;53.958;10.970;2023-01-29T15:27:53;101603.63;;;3.31;100.00
39823;BME280;25499;53.958;10.970;2023-01-29T15:30:25;101602.03;;;3.33;100.00
39823;BME280;25499;53.958;10.970;2023-01-29T15:32:53;101582.31;;;3.33;100.00
39823;BME280;25499;53.958;10.970;2023-01-29T15:35:36;101581.44;;;3.33;100.00
39823;BME280;25499;53.958;10.970;2023-01-29T15:38:20;101572.88;;;3.34;100.00
39823;BME280;25499;53.958;10.970;2023-01-29T15:41:16;101571.88;;;3.30;100.00
39823;BME280;25499;53.958;10.970;2023-01-29T15:43:45;101577.16;;;3.33;100.00
39823;BME280;25499;53.958;10.970;2023-01-29T15:46:37;101562.38;;;3.28;100.00
39823;BME280;25499;53.958;10.970;2023-01-29T15:49:09;101559.84;;;3.29;100.00
39823;BME280;25499;53.958;10.970;2023-01-29T15:51:38;101557.31;;;3.31;100.00
39823;BME280;25499;53.958;10.970;2023-01-29T15:54:08;101550.50;;;3.31;100.00
39823;BME280;25499;53.958;10.970;2023-01-29T15:56:45;101548.72;;;3.30;100.00
39823;BME280;25499;53.958;10.970;2023-01-29T15:59:18;101544.50;;;3.32;100.00
39823;BME280;25499;53.958;10.970;2023-01-29T16:01:45;101541.94;;;3.32;100.00
39823;BME280;25499;53.958;10.970;2023-01-29T16:04:19;101540.25;;;3.33;100.00
39823;BME280;25499;53.958;10.970;2023-01-29T16:06:46;101536.78;;;3.32;100.00
39823;BME280;25499;53.958;10.970;2023-01-29T16:09:17;101525.50;;;3.29;100.00
39823;BME280;25499;53.958;10.970;2023-01-29T16:11:45;101518.69;;;3.29;100.00
39823;BME280;25499;53.958;10.970;2023-01-29T16:14:13;101526.44;;;3.31;100.00
39823;BME280;25499;53.958;10.970;2023-01-29T16:16:40;101521.19;;;3.28;100.00
39823;BME280;25499;53.958;10.970;2023-01-29T16:19:26;101517.09;;;3.33;100.00
39823;BME280;25499;53.958;10.970;2023-01-29T16:21:59;101532.16;;;3.24;100.00
39823;BME280;25499;53.958;10.970;2023-01-29T16:24:26;101527.41;;;3.33;100.00
39823;BME280;25499;53.958;10.970;2023-01-29T16:26:58;101527.47;;;3.36;100.00
39823;BME280;25499;53.958;10.970;2023-01-29T16:29:34;101522.34;;;3.36;100.00
39823;BME280;25499;53.958;10.970;2023-01-29T16:32:00;101527.47;;;3.36;100.00
39823;BME280;25499;53.958;10.970;2023-01-29T16:34:40;101509.44;;;3.34;100.00
39823;BME280;25499;53.958;10.970;2023-01-29T16:37:23;101510.97;;;3.29;100.00
39823;BME280;25499;53.958;10.970;2023-01-29T16:39:50;101505.81;;;3.29;100.00
39823;BME280;25499;53.958;10.970;2023-01-29T16:42:22;101515.28;;;3.30;100.00
39823;BME280;25499;53.958;10.970;2023-01-29T16:52:54;101494.00;;;3.34;100.00
39823;BME280;25499;53.958;10.970;2023-01-29T16:55:21;101490.47;;;3.32;100.00
39823;BME280;25499;53.958;10.970;2023-01-29T16:57:54;101485.22;;;3.29;100.00
39823;BME280;25499;53.958;10.970;2023-01-29T17:00:26;101484.97;;;3.23;100.00
39823;BME280;25499;53.958;10.970;2023-01-29T17:02:55;101485.78;;;3.22;100.00
39823;BME280;25499;53.958;10.970;2023-01-29T17:05:27;101489.81;;;3.15;100.00
39823;BME280;25499;53.958;10.970;2023-01-29T17:07:57;101487.69;;;3.05;100.00
39823;BME280;25499;53.958;10.970;2023-01-29T17:10:25;101480.16;;;3.10;100.00
39823;BME280;25499;53.958;10.970;2023-01-29T17:13:03;101483.41;;;3.04;100.00
39823;BME280;25499;53.958;10.970;2023-01-29T17:18:22;101464.25;;;2.97;100.00
39823;BME280;25499;53.958;10.970;2023-01-29T17:20:49;101458.22;;;2.97;100.00
39823;BME280;25499;53.958;10.970;2023-01-29T17:23:15;101469.34;;;2.96;100.00
39823;BME280;25499;53.958;10.970;2023-01-29T17:25:41;101464.88;;;2.92;100.00
39823;BME280;25499;53.958;10.970;2023-01-29T17:28:13;101464.88;;;2.92;100.00
39823;BME280;25499;53.958;10.970;2023-01-29T17:30:39;101455.50;;;2.92;100.00
39823;BME280;25499;53.958;10.970;2023-01-29T17:33:12;101455.38;;;2.89;100.00
39823;BME280;25499;53.958;10.970;2023-01-29T17:35:39;101449.28;;;2.87;100.00
39823;BME280;25499;53.958;10.970;2023-01-29T17:38:09;101439.56;;;2.80;100.00
39823;BME280;25499;53.958;10.970;2023-01-29T17:40:39;101446.53;;;2.83;100.00
39823;BME280;25499;53.958;10.970;2023-01-29T17:43:05;101437.25;;;2.86;100.00
39823;BME280;25499;53.958;10.970;2023-01-29T17:45:32;101423.25;;;2.79;100.00
39823;BME280;25499;53.958;10.970;2023-01-29T17:47:57;101425.84;;;2.79;100.00
39823;BME280;25499;53.958;10.970;2023-01-29T17:50:25;101417.50;;;2.85;100.00
39823;BME280;25499;53.958;10.970;2023-01-29T17:52:51;101403.81;;;2.86;100.00
39823;BME280;25499;53.958;10.970;2023-01-29T17:55:18;101406.09;;;2.78;100.00
39823;BME280;25499;53.958;10.970;2023-01-29T17:57:44;101397.50;;;2.78;100.00
39823;BME280;25499;53.958;10.970;2023-01-29T18:00:20;101387.19;;;2.78;100.00
39823;BME280;25499;53.958;10.970;2023-01-29T18:02:46;101379.38;;;2.75;100.00
39823;BME280;25499;53.958;10.970;2023-01-29T18:05:14;101385.53;;;2.78;100.00
39823;BME280;25499;53.958;10.970;2023-01-29T18:07:41;101367.47;;;2.77;100.00
39823;BME280;25499;53.958;10.970;2023-01-29T18:10:14;101365.59;;;2.73;100.00
39823;BME280;25499;53.958;10.970;2023-01-29T18:12:40;101365.72;;;2.76;100.00
39823;BME280;25499;53.958;10.970;2023-01-29T18:15:06;101362.34;;;2.77;100.00
39823;BME280;25499;53.958;10.970;2023-01-29T18:17:32;101355.47;;;2.77;100.00
39823;BME280;25499;53.958;10.970;2023-01-29T18:19:57;101342.69;;;2.79;100.00
39823;BME280;25499;53.958;10.970;2023-01-29T18:22:24;101351.22;;;2.78;100.00
39823;BME280;25499;53.958;10.970;2023-01-29T18:24:50;101324.56;;;2.76;100.00
39823;BME280;25499;53.958;10.970;2023-01-29T18:27:15;101320.28;;;2.76;100.00
39823;BME280;25499;53.958;10.970;2023-01-29T18:29:41;101315.88;;;2.72;100.00
39823;BME280;25499;53.958;10.970;2023-01-29T18:32:06;101315.94;;;2.74;100.00
39823;BME280;25499;53.958;10.970;2023-01-29T18:34:32;101302.97;;;2.71;100.00
39823;BME280;25499;53.958;10.970;2023-01-29T18:36:57;101302.47;;;2.81;100.00
39823;BME280;25499;53.958;10.970;2023-01-29T18:39:24;101302.38;;;2.78;100.00
39823;BME280;25499;53.958;10.970;2023-01-29T18:41:49;101291.28;;;2.79;100.00
39823;BME280;25499;53.958;10.970;2023-01-29T18:44:15;101286.94;;;2.78;100.00
39823;BME280;25499;53.958;10.970;2023-01-29T18:46:40;101276.66;;;2.78;100.00
39823;BME280;25499;53.958;10.970;2023-01-29T18:49:06;101268.81;;;2.75;100.00
39823;BME280;25499;53.958;10.970;2023-01-29T18:51:31;101254.44;;;2.80;100.00
39823;BME280;25499;53.958;10.970;2023-01-29T18:53:56;101257.06;;;2.82;100.00
39823;BME280;25499;53.958;10.970;2023-01-29T18:56:22;101251.28;;;2.87;100.00
39823;BME280;25499;53.958;10.970;2023-01-29T18:58:48;101256.44;;;2.87;100.00
39823;BME280;25499;53.958;10.970;2023-01-29T19:01:18;101249.41;;;2.83;100.00
39823;BME280;25499;53.958;10.970;2023-01-29T19:03:43;101247.00;;;2.88;100.00
39823;BME280;25499;53.958;10.970;2023-01-29T19:06:09;101243.53;;;2.86;100.00
39823;BME280;25499;53.958;10.970;2023-01-29T19:08:35;101251.28;;;2.87;100.00
39823;BME280;25499;53.958;10.970;2023-01-29T19:11:01;101246.34;;;2.93;100.00
39823;BME280;25499;53.958;10.970;2023-01-29T19:13:30;101234.09;;;2.86;100.00
39823;BME280;25499;53.958;10.970;2023-01-29T19:15:56;101222.22;;;2.90;100.00
39823;BME280;25499;53.958;10.970;2023-01-29T19:18:21;101208.50;;;2.89;100.00
39823;BME280;25499;53.958;10.970;2023-01-29T19:20:50;101192.28;;;2.90;100.00
39823;BME280;25499;53.958;10.970;2023-01-29T19:23:16;101198.34;;;2.92;100.00
39823;BME280;25499;53.958;10.970;2023-01-29T19:25:41;101193.19;;;2.92;100.00
39823;BME280;25499;53.958;10.970;2023-01-29T19:28:07;101195.81;;;2.94;100.00
39823;BME280;25499;53.958;10.970;2023-01-29T19:30:33;101186.41;;;2.94;100.00
39823;BME280;25499;53.958;10.970;2023-01-29T19:32:59;101182.19;;;2.96;100.00
39823;BME280;25499;53.958;10.970;2023-01-29T19:35:25;101189.84;;;2.95;100.00
39823;BME280;25499;53.958;10.970;2023-01-29T19:37:51;101178.69;;;2.94;100.00
39823;BME280;25499;53.958;10.970;2023-01-29T19:40:16;101177.88;;;2.95;100.00
39823;BME280;25499;53.958;10.970;2023-01-29T19:42:43;101172.50;;;2.89;100.00
39823;BME280;25499;53.958;10.970;2023-01-29T19:45:08;101166.81;;;2.98;100.00
39823;BME280;25499;53.958;10.970;2023-01-29T19:47:41;101161.59;;;2.96;100.00
39823;BME280;25499;53.958;10.970;2023-01-29T19:50:09;101158.84;;;2.90;100.00
39823;BME280;25499;53.958;10.970;2023-01-29T19:52:35;101152.91;;;2.93;100.00
39823;BME280;25499;53.958;10.970;2023-01-29T19:55:05;101147.81;;;2.94;100.00
39823;BME280;25499;53.958;10.970;2023-01-29T19:57:31;101148.63;;;2.93;100.00
39823;BME280;25499;53.958;10.970;2023-01-29T19:59:58;101156.41;;;2.95;100.00
39823;BME280;25499;53.958;10.970;2023-01-29T20:02:24;101148.56;;;2.90;100.00
39823;BME280;25499;53.958;10.970;2023-01-29T20:04:50;101139.13;;;2.91;100.00
39823;BME280;25499;53.958;10.970;2023-01-29T20:07:17;101133.19;;;2.93;100.00
39823;BME280;25499;53.958;10.970;2023-01-29T20:09:46;101134.00;;;2.91;100.00
39823;BME280;25499;53.958;10.970;2023-01-29T20:12:12;101133.94;;;2.89;100.00
39823;BME280;25499;53.958;10.970;2023-01-29T20:14:38;101130.50;;;2.89;100.00
39823;BME280;25499;53.958;10.970;2023-01-29T20:17:04;101126.16;;;2.88;100.00
39823;BME280;25499;53.958;10.970;2023-01-29T20:19:30;101115.94;;;2.89;100.00
39823;BME280;25499;53.958;10.970;2023-01-29T20:21:55;101121.13;;;2.91;100.00
39823;BME280;25499;53.958;10.970;2023-01-29T20:24:20;101114.03;;;2.84;100.00
39823;BME280;25499;53.958;10.970;2023-01-29T20:26:47;101122.72;;;2.87;100.00
39823;BME280;25499;53.958;10.970;2023-01-29T20:29:13;101102.03;;;2.84;100.00
39823;BME280;25499;53.958;10.970;2023-01-29T20:31:39;101097.72;;;2.83;100.00
39823;BME280;25499;53.958;10.970;2023-01-29T20:34:05;101103.84;;;2.87;100.00
39823;BME280;25499;53.958;10.970;2023-01-29T20:36:30;101084.81;;;2.82;100.00
39823;BME280;25499;53.958;10.970;2023-01-29T20:38:56;101092.50;;;2.82;100.00
39823;BME280;25499;53.958;10.970;2023-01-29T20:41:21;101077.88;;;2.79;100.00
39823;BME280;25499;53.958;10.970;2023-01-29T20:43:47;101086.50;;;2.81;100.00
39823;BME280;25499;53.958;10.970;2023-01-29T20:46:14;101084.72;;;2.78;100.00
39823;BME280;25499;53.958;10.970;2023-01-29T20:48:39;101066.16;;;2.87;100.00
39823;BME280;25499;53.958;10.970;2023-01-29T20:51:11;101058.19;;;2.79;100.00
39823;BME280;25499;53.958;10.970;2023-01-29T20:53:39;101072.91;;;2.84;100.00
39823;BME280;25499;53.958;10.970;2023-01-29T20:56:07;101061.78;;;2.85;100.00
39823;BME280;25499;53.958;10.970;2023-01-29T20:58:34;101056.53;;;2.82;100.00
39823;BME280;25499;53.958;10.970;2023-01-29T21:00:59;101047.13;;;2.82;100.00
39823;BME280;25499;53.958;10.970;2023-01-29T21:03:25;101048.56;;;2.74;100.00
39823;BME280;25499;53.958;10.970;2023-01-29T21:05:50;101037.59;;;2.79;100.00
39823;BME280;25499;53.958;10.970;2023-01-29T21:08:16;101039.31;;;2.79;100.00
39823;BME280;25499;53.958;10.970;2023-01-29T21:10:42;101019.56;;;2.78;100.00
39823;BME280;25499;53.958;10.970;2023-01-29T21:13:10;101015.31;;;2.78;100.00
39823;BME280;25499;53.958;10.970;2023-01-29T21:15:37;101006.72;;;2.78;100.00
39823;BME280;25499;53.958;10.970;2023-01-29T21:18:04;101014.47;;;2.79;100.00
